createdAt,value
2023-04-27T00:02:28.259Z,100.00
2023-04-27T00:04:57.309Z,100.00
2023-04-27T00:07:26.708Z,100.00
2023-04-27T00:09:55.029Z,100.00
2023-04-27T00:12:23.331Z,100.00
2023-04-27T00:14:53.032Z,100.00
2023-04-27T00:17:21.563Z,100.00
2023-04-27T00:19:49.836Z,100.00
2023-04-27T00:22:18.205Z,100.00
2023-04-27T00:24:46.535Z,100.00
2023-04-27T00:27:14.846Z,100.00
2023-04-27T00:29:43.235Z,100.00
2023-04-27T00:32:13.248Z,100.00
2023-04-27T00:34:41.553Z,100.00
2023-04-27T00:37:10.155Z,100.00
2023-04-27T00:39:38.571Z,100.00
2023-04-27T00:42:11.418Z,100.00
2023-04-27T00:44:39.998Z,100.00
2023-04-27T00:47:08.667Z,100.00
2023-04-27T00:49:38.908Z,100.00
2023-04-27T00:52:07.861Z,100.00
2023-04-27T00:54:36.369Z,100.00
2023-04-27T00:57:05.336Z,100.00
2023-04-27T00:59:33.691Z,100.00
2023-04-27T01:02:02.844Z,100.00
2023-04-27T01:04:32.491Z,100.00
2023-04-27T01:07:03.291Z,100.00
2023-04-27T01:09:31.713Z,100.00
2023-04-27T01:12:00.115Z,100.00
2023-04-27T01:14:28.359Z,100.00
2023-04-27T01:16:56.665Z,100.00
2023-04-27T01:19:25.196Z,100.00
2023-04-27T01:21:53.533Z,100.00
2023-04-27T01:24:23.233Z,100.00
2023-04-27T01:26:53.991Z,99.30
2023-04-27T01:29:22.669Z,100.00
2023-04-27T01:31:51.116Z,100.00
2023-04-27T01:34:19.372Z,99.83
2023-04-27T01:36:47.645Z,100.00
2023-04-27T01:39:16.489Z,100.00
2023-04-27T01:41:46.415Z,100.00
2023-04-27T01:44:14.622Z,100.00
2023-04-27T01:46:42.978Z,100.00
2023-04-27T01:49:11.504Z,100.00
2023-04-27T01:51:40.023Z,100.00
2023-04-27T01:54:08.337Z,100.00
2023-04-27T01:56:36.545Z,100.00
2023-04-27T01:59:06.245Z,100.00
2023-04-27T02:01:34.636Z,100.00
2023-04-27T02:04:03.191Z,100.00
2023-04-27T02:06:31.598Z,100.00
2023-04-27T02:08:59.981Z,100.00
2023-04-27T02:11:28.292Z,100.00
2023-04-27T02:13:56.573Z,100.00
2023-04-27T02:16:27.271Z,100.00
2023-04-27T02:18:55.513Z,100.00
2023-04-27T02:21:23.776Z,99.25
2023-04-27T02:23:52.058Z,100.00
2023-04-27T02:26:21.156Z,98.94
2023-04-27T02:28:50.280Z,98.87
2023-04-27T02:31:19.136Z,98.08
2023-04-27T02:33:48.919Z,97.38
2023-04-27T02:36:17.308Z,96.86
2023-04-27T02:38:45.604Z,96.97
2023-04-27T02:41:13.984Z,97.27
2023-04-27T02:43:42.222Z,96.71
2023-04-27T02:46:12.044Z,96.12
2023-04-27T02:48:40.334Z,94.78
2023-04-27T02:51:10.047Z,95.14
2023-04-27T02:53:38.281Z,95.09
2023-04-27T02:56:07.040Z,95.76
2023-04-27T02:58:35.319Z,96.77
2023-04-27T03:01:04.039Z,96.89
2023-04-27T03:03:32.431Z,97.09
2023-04-27T03:06:00.953Z,97.13
2023-04-27T03:08:30.597Z,96.73
2023-04-27T03:10:58.828Z,95.80
2023-04-27T03:13:28.135Z,96.15
2023-04-27T03:15:56.421Z,95.72
2023-04-27T03:18:24.843Z,95.78
2023-04-27T03:20:53.142Z,94.63
2023-04-27T03:23:21.389Z,95.02
2023-04-27T03:25:51.210Z,95.24
2023-04-27T03:28:19.453Z,94.74
2023-04-27T03:30:47.654Z,94.50
2023-04-27T03:33:15.878Z,94.91
2023-04-27T03:35:44.169Z,93.53
2023-04-27T03:38:12.373Z,93.85
2023-04-27T03:40:40.576Z,93.56
2023-04-27T03:43:10.418Z,93.87
2023-04-27T03:45:38.694Z,93.99
2023-04-27T03:48:07.765Z,93.24
2023-04-27T03:50:36.068Z,93.52
2023-04-27T03:53:04.553Z,92.42
2023-04-27T03:55:32.808Z,91.69
2023-04-27T03:58:01.095Z,89.80
2023-04-27T04:00:31.619Z,88.05
2023-04-27T04:02:59.910Z,88.62
2023-04-27T04:05:28.502Z,89.52
2023-04-27T04:07:56.951Z,88.72
2023-04-27T04:10:25.719Z,88.38
2023-04-27T04:12:54.276Z,88.42
2023-04-27T04:15:22.450Z,86.94
2023-04-27T04:17:52.598Z,86.92
2023-04-27T04:20:21.069Z,85.18
2023-04-27T04:22:49.333Z,82.84
2023-04-27T04:25:18.058Z,82.01
2023-04-27T04:27:46.340Z,80.48
2023-04-27T04:30:15.235Z,80.17
2023-04-27T04:32:45.133Z,79.34
2023-04-27T04:35:16.295Z,77.63
2023-04-27T04:37:44.648Z,80.02
2023-04-27T04:40:14.129Z,80.82
2023-04-27T04:42:42.600Z,79.22
2023-04-27T04:45:11.762Z,80.21
2023-04-27T04:47:40.673Z,80.76
2023-04-27T04:50:10.722Z,76.38
2023-04-27T04:52:40.594Z,76.34
2023-04-27T04:55:09.304Z,77.45
2023-04-27T04:57:37.695Z,77.61
2023-04-27T05:00:11.613Z,78.10
2023-04-27T05:02:40.203Z,79.15
2023-04-27T05:05:09.299Z,79.53
2023-04-27T05:07:37.731Z,79.13
2023-04-27T05:10:08.233Z,78.92
2023-04-27T05:12:36.543Z,79.56
2023-04-27T05:15:05.076Z,80.30
2023-04-27T05:17:33.480Z,80.76
2023-04-27T05:20:01.905Z,81.48
2023-04-27T05:22:30.183Z,80.81
2023-04-27T05:24:59.233Z,81.19
2023-04-27T05:27:30.210Z,81.85
2023-04-27T05:29:58.528Z,82.01
2023-04-27T05:32:26.961Z,80.51
2023-04-27T05:34:55.262Z,79.95
2023-04-27T05:37:23.679Z,78.69
2023-04-27T05:39:52.744Z,78.05
2023-04-27T05:42:21.046Z,79.27
2023-04-27T05:44:50.667Z,78.65
2023-04-27T05:47:18.876Z,76.93
2023-04-27T05:49:52.816Z,75.29
2023-04-27T05:52:21.321Z,76.29
2023-04-27T05:54:50.026Z,75.50
2023-04-27T05:57:18.380Z,75.63
2023-04-27T05:59:46.720Z,74.86
2023-04-27T06:02:16.757Z,73.81
2023-04-27T06:04:45.319Z,75.08
2023-04-27T06:07:16.179Z,74.56
2023-04-27T06:09:44.714Z,72.82
2023-04-27T06:12:13.041Z,71.65
2023-04-27T06:14:41.485Z,72.43
2023-04-27T06:17:09.768Z,72.33
2023-04-27T06:19:39.501Z,70.57
2023-04-27T06:22:07.818Z,70.53
2023-04-27T06:24:36.646Z,68.97
2023-04-27T06:27:05.139Z,67.35
2023-04-27T06:29:33.546Z,66.53
2023-04-27T06:32:01.987Z,66.11
2023-04-27T06:34:30.546Z,66.90
2023-04-27T06:37:00.173Z,64.95
2023-04-27T06:39:28.585Z,63.63
2023-04-27T06:41:57.048Z,60.89
2023-04-27T06:44:25.368Z,58.65
2023-04-27T06:46:53.883Z,55.87
2023-04-27T06:49:22.328Z,55.77
2023-04-27T06:51:50.859Z,52.85
2023-04-27T06:54:20.868Z,54.07
2023-04-27T06:56:49.113Z,54.47
2023-04-27T06:59:17.565Z,55.00
2023-04-27T07:01:46.536Z,54.55
2023-04-27T07:04:15.012Z,56.83
2023-04-27T07:06:43.592Z,58.39
2023-04-27T07:09:24.040Z,58.17
2023-04-27T07:11:57.437Z,59.21
2023-04-27T07:14:26.214Z,58.74
2023-04-27T07:16:54.739Z,58.43
2023-04-27T07:19:22.989Z,59.32
2023-04-27T07:21:51.999Z,59.43
2023-04-27T07:24:20.441Z,58.10
2023-04-27T07:26:49.334Z,57.92
2023-04-27T07:29:26.325Z,56.80
2023-04-27T07:31:55.803Z,56.25
2023-04-27T07:34:25.133Z,56.33
2023-04-27T07:36:54.563Z,57.80
2023-04-27T07:39:23.651Z,58.34
2023-04-27T07:41:51.869Z,57.15
2023-04-27T07:44:22.029Z,56.11
2023-04-27T07:46:50.257Z,55.48
2023-04-27T07:49:18.576Z,54.60
2023-04-27T07:51:47.044Z,54.35
2023-04-27T07:54:15.480Z,55.13
2023-04-27T07:56:44.281Z,55.16
2023-04-27T07:59:13.034Z,54.64
2023-04-27T08:01:45.768Z,54.77
2023-04-27T08:04:14.416Z,53.36
2023-04-27T08:06:47.044Z,51.02
2023-04-27T08:09:16.011Z,50.50
2023-04-27T08:11:44.565Z,50.74
2023-04-27T08:14:13.797Z,50.53
2023-04-27T08:16:44.762Z,50.44
2023-04-27T08:19:13.222Z,50.24
2023-04-27T08:21:41.683Z,50.71
2023-04-27T08:24:09.934Z,48.37
2023-04-27T08:26:38.373Z,48.56
2023-04-27T08:29:19.553Z,48.24
2023-04-27T08:31:57.120Z,48.03
2023-04-27T08:34:25.690Z,48.69
2023-04-27T08:36:54.171Z,47.21
2023-04-27T08:39:22.967Z,46.81
2023-04-27T08:41:51.764Z,45.63
2023-04-27T08:44:20.137Z,46.89
2023-04-27T08:46:48.943Z,47.59
2023-04-27T08:49:18.949Z,47.33
2023-04-27T08:51:47.464Z,45.77
2023-04-27T08:54:15.692Z,45.40
2023-04-27T08:56:44.154Z,46.17
2023-04-27T08:59:16.879Z,46.32
2023-04-27T09:01:47.100Z,45.99
2023-04-27T09:04:16.765Z,46.24
2023-04-27T09:06:46.890Z,46.37
2023-04-27T09:09:23.792Z,44.82
2023-04-27T09:11:52.470Z,44.75
2023-04-27T09:14:22.401Z,44.45
2023-04-27T09:16:57.818Z,45.68
2023-04-27T09:19:27.630Z,45.16
2023-04-27T09:22:07.448Z,44.11
2023-04-27T09:24:35.878Z,43.22
2023-04-27T09:27:05.093Z,44.76
2023-04-27T09:29:38.984Z,44.14
2023-04-27T09:32:17.919Z,44.17
2023-04-27T09:34:46.765Z,42.91
2023-04-27T09:37:16.902Z,43.41
2023-04-27T09:39:45.395Z,43.91
2023-04-27T09:42:14.265Z,42.46
2023-04-27T09:44:42.525Z,44.63
2023-04-27T09:47:12.383Z,42.86
2023-04-27T09:49:40.727Z,43.67
2023-04-27T09:52:08.978Z,44.54
2023-04-27T09:54:39.024Z,43.86
2023-04-27T09:57:18.965Z,44.62
2023-04-27T10:00:07.867Z,44.29
2023-04-27T10:02:53.189Z,43.87
2023-04-27T10:05:42.724Z,43.79
2023-04-27T10:08:12.164Z,43.70
2023-04-27T10:10:51.111Z,43.56
2023-04-27T10:13:24.093Z,44.50
2023-04-27T10:15:52.592Z,45.31
2023-04-27T10:18:28.898Z,44.00
2023-04-27T10:20:57.379Z,44.55
2023-04-27T10:23:26.664Z,44.81
2023-04-27T10:25:57.428Z,45.01
2023-04-27T10:28:25.642Z,44.56
2023-04-27T10:30:53.889Z,44.57
2023-04-27T10:33:24.354Z,44.46
2023-04-27T10:35:57.848Z,43.82
2023-04-27T10:38:30.351Z,43.95
2023-04-27T10:41:02.354Z,43.22
2023-04-27T10:43:31.962Z,43.16
2023-04-27T10:46:09.008Z,43.29
2023-04-27T10:48:37.354Z,42.78
2023-04-27T10:51:06.632Z,42.81
2023-04-27T10:53:38.128Z,42.38
2023-04-27T10:56:08.281Z,43.71
2023-04-27T10:58:48.280Z,43.37
2023-04-27T11:01:25.935Z,43.77
2023-04-27T11:03:57.293Z,44.14
2023-04-27T11:06:25.579Z,44.95
2023-04-27T11:08:53.874Z,44.36
2023-04-27T11:11:24.529Z,44.56
2023-04-27T11:13:53.458Z,43.56
2023-04-27T11:16:21.806Z,43.39
2023-04-27T11:18:50.066Z,42.78
2023-04-27T11:21:22.240Z,43.85
2023-04-27T11:23:50.658Z,43.58
2023-04-27T11:26:21.527Z,43.82
2023-04-27T11:29:05.298Z,44.22
2023-04-27T11:31:43.885Z,43.86
2023-04-27T11:34:19.324Z,43.31
2023-04-27T11:37:07.099Z,43.30
2023-04-27T11:39:41.704Z,43.53
2023-04-27T11:42:18.292Z,43.86
2023-04-27T11:44:54.365Z,43.80
2023-04-27T11:47:23.068Z,43.72
2023-04-27T11:49:52.704Z,42.59
2023-04-27T11:52:21.128Z,43.21
2023-04-27T11:54:50.873Z,43.32
2023-04-27T11:57:19.125Z,43.06
2023-04-27T11:59:47.536Z,42.48
2023-04-27T12:02:17.239Z,42.59
2023-04-27T12:04:45.895Z,42.40
2023-04-27T12:07:14.615Z,42.90
2023-04-27T12:09:43.512Z,42.00
2023-04-27T12:12:12.930Z,42.44
2023-04-27T12:14:41.559Z,41.60
2023-04-27T12:17:09.825Z,41.45
2023-04-27T12:19:39.497Z,41.99
2023-04-27T12:22:08.597Z,42.24
2023-04-27T12:24:37.518Z,42.12
2023-04-27T12:27:07.006Z,42.58
2023-04-27T12:29:35.336Z,42.20
2023-04-27T12:32:03.753Z,42.14
2023-04-27T12:34:32.010Z,42.89
2023-04-27T12:37:01.776Z,42.77
2023-04-27T12:39:30.318Z,43.39
2023-04-27T12:41:59.398Z,43.93
2023-04-27T12:44:28.042Z,43.23
2023-04-27T12:46:56.471Z,43.11
2023-04-27T12:49:24.723Z,43.32
2023-04-27T12:51:54.232Z,43.91
2023-04-27T12:54:23.994Z,43.18
2023-04-27T12:56:52.483Z,42.72
2023-04-27T12:59:20.758Z,42.35
2023-04-27T13:01:49.183Z,43.13
2023-04-27T13:04:22.098Z,43.55
2023-04-27T13:06:51.102Z,43.53
2023-04-27T13:09:19.367Z,43.03
2023-04-27T13:11:49.002Z,42.08
2023-04-27T13:14:17.357Z,42.65
2023-04-27T13:16:45.900Z,42.67
2023-04-27T13:19:14.373Z,43.09
2023-04-27T13:21:42.680Z,42.58
2023-04-27T13:24:10.950Z,43.15
2023-04-27T13:26:39.331Z,43.39
2023-04-27T13:29:09.184Z,43.17
2023-04-27T13:31:37.817Z,43.27
2023-04-27T13:34:06.228Z,43.01
2023-04-27T13:36:34.671Z,43.51
2023-04-27T13:39:02.920Z,43.70
2023-04-27T13:41:32.464Z,43.60
2023-04-27T13:44:00.805Z,44.23
2023-04-27T13:46:30.689Z,44.83
2023-04-27T13:48:59.008Z,45.35
2023-04-27T13:51:29.732Z,45.44
2023-04-27T13:53:58.098Z,46.17
2023-04-27T13:56:26.428Z,46.56
2023-04-27T13:58:54.746Z,46.74
2023-04-27T14:01:23.020Z,46.41
2023-04-27T14:04:17.483Z,46.35
2023-04-27T14:06:47.058Z,46.00
2023-04-27T14:09:15.688Z,45.71
2023-04-27T14:11:52.911Z,45.71
2023-04-27T14:14:24.664Z,46.19
2023-04-27T14:17:05.224Z,45.70
2023-04-27T14:19:34.962Z,46.09
2023-04-27T14:22:04.658Z,46.89
2023-04-27T14:24:32.927Z,46.55
2023-04-27T14:27:01.260Z,46.73
2023-04-27T14:29:29.621Z,46.82
2023-04-27T14:31:57.965Z,45.99
2023-04-27T14:34:26.264Z,47.06
2023-04-27T14:36:56.052Z,47.12
2023-04-27T14:39:24.559Z,46.22
2023-04-27T14:41:53.021Z,46.25
2023-04-27T14:44:21.252Z,46.38
2023-04-27T14:46:49.533Z,45.66
2023-04-27T14:49:17.986Z,46.18
2023-04-27T14:51:46.351Z,46.54
2023-04-27T14:54:16.155Z,45.97
2023-04-27T14:56:44.511Z,46.01
2023-04-27T14:59:12.956Z,46.38
2023-04-27T15:01:41.392Z,45.96
2023-04-27T15:04:11.969Z,46.33
2023-04-27T15:06:40.453Z,45.99
2023-04-27T15:09:09.064Z,46.21
2023-04-27T15:11:39.038Z,45.64
2023-04-27T15:14:08.748Z,45.75
2023-04-27T15:16:37.586Z,46.16
2023-04-27T15:19:05.858Z,47.04
2023-04-27T15:21:37.698Z,46.65
2023-04-27T15:24:06.320Z,46.68
2023-04-27T15:26:34.643Z,46.71
2023-04-27T15:29:04.652Z,46.61
2023-04-27T15:31:33.017Z,46.68
2023-04-27T15:34:01.250Z,46.72
2023-04-27T15:36:29.848Z,46.74
2023-04-27T15:38:59.420Z,47.08
2023-04-27T15:41:27.808Z,47.24
2023-04-27T15:43:56.312Z,47.85
2023-04-27T15:46:26.168Z,47.70
2023-04-27T15:48:54.440Z,48.20
2023-04-27T15:51:22.759Z,49.02
2023-04-27T15:53:50.961Z,48.96
2023-04-27T15:56:19.283Z,48.79
2023-04-27T15:58:47.742Z,49.69
2023-04-27T16:01:16.157Z,49.59
2023-04-27T16:03:46.046Z,50.39
2023-04-27T16:06:14.783Z,51.83
2023-04-27T16:08:43.304Z,52.96
2023-04-27T16:11:11.642Z,53.98
2023-04-27T16:13:39.942Z,54.71
2023-04-27T16:16:09.747Z,55.37
2023-04-27T16:18:38.807Z,55.96
2023-04-27T16:21:08.688Z,57.23
2023-04-27T16:23:36.930Z,57.62
2023-04-27T16:26:05.179Z,58.63
2023-04-27T16:28:33.936Z,58.83
2023-04-27T16:31:02.231Z,58.44
2023-04-27T16:33:30.771Z,59.08
2023-04-27T16:35:59.007Z,59.69
2023-04-27T16:38:28.902Z,60.14
2023-04-27T16:40:57.397Z,60.92
2023-04-27T16:43:25.949Z,61.38
2023-04-27T16:45:54.223Z,62.49
2023-04-27T16:48:22.452Z,62.24
2023-04-27T16:50:52.217Z,62.43
2023-04-27T16:53:22.052Z,62.93
2023-04-27T16:55:51.833Z,63.48
2023-04-27T16:58:20.235Z,64.04
2023-04-27T17:00:48.761Z,64.63
2023-04-27T17:03:17.187Z,66.01
2023-04-27T17:05:45.505Z,67.13
2023-04-27T17:08:13.778Z,67.01
2023-04-27T17:10:42.197Z,67.24
2023-04-27T17:13:12.625Z,67.80
2023-04-27T17:15:41.179Z,68.16
2023-04-27T17:18:09.956Z,68.73
2023-04-27T17:20:39.785Z,69.09
2023-04-27T17:23:09.967Z,69.44
2023-04-27T17:25:38.333Z,69.88
2023-04-27T17:28:06.856Z,70.11
2023-04-27T17:30:36.759Z,71.13
2023-04-27T17:33:05.199Z,71.04
2023-04-27T17:35:33.495Z,71.26
2023-04-27T17:38:01.891Z,71.90
2023-04-27T17:40:30.197Z,72.95
2023-04-27T17:42:58.641Z,73.86
2023-04-27T17:45:28.798Z,74.25
2023-04-27T17:47:58.659Z,74.47
2023-04-27T17:50:27.209Z,74.44
2023-04-27T17:52:55.507Z,75.09
2023-04-27T17:55:24.169Z,75.49
2023-04-27T17:57:52.682Z,75.96
2023-04-27T18:00:21.484Z,76.25
2023-04-27T18:02:50.070Z,76.66
2023-04-27T18:05:20.042Z,77.18
2023-04-27T18:07:50.131Z,77.25
2023-04-27T18:10:20.103Z,78.15
2023-04-27T18:12:48.329Z,78.56
2023-04-27T18:15:16.716Z,79.24
2023-04-27T18:17:45.328Z,80.04
2023-04-27T18:20:15.671Z,80.30
2023-04-27T18:22:45.368Z,80.44
2023-04-27T18:25:13.910Z,81.47
2023-04-27T18:27:44.088Z,82.29
2023-04-27T18:30:12.964Z,82.91
2023-04-27T18:32:41.182Z,83.96
2023-04-27T18:35:12.749Z,84.36
2023-04-27T18:37:41.005Z,85.85
2023-04-27T18:40:11.800Z,86.84
2023-04-27T18:42:40.201Z,87.43
2023-04-27T18:45:09.863Z,88.44
2023-04-27T18:47:38.124Z,89.70
2023-04-27T18:50:07.955Z,90.05
2023-04-27T18:52:36.220Z,90.90
2023-04-27T18:55:04.995Z,91.35
2023-04-27T18:57:35.037Z,91.45
2023-04-27T19:00:04.685Z,90.93
2023-04-27T19:02:33.107Z,91.56
2023-04-27T19:05:11.400Z,90.88
2023-04-27T19:07:41.245Z,90.37
2023-04-27T19:10:11.469Z,90.59
2023-04-27T19:12:41.385Z,90.89
2023-04-27T19:15:10.366Z,91.24
2023-04-27T19:17:38.726Z,91.50
2023-04-27T19:20:08.264Z,91.85
2023-04-27T19:22:37.148Z,92.23
2023-04-27T19:25:06.137Z,92.49
2023-04-27T19:27:34.526Z,92.92
2023-04-27T19:30:04.535Z,92.24
2023-04-27T19:32:34.387Z,92.80
2023-04-27T19:35:02.880Z,92.87
2023-04-27T19:37:31.372Z,92.93
2023-04-27T19:40:00.297Z,93.79
2023-04-27T19:42:28.740Z,94.14
2023-04-27T19:44:57.056Z,95.13
2023-04-27T19:47:27.001Z,96.05
2023-04-27T19:49:55.286Z,96.25
2023-04-27T19:52:25.137Z,96.62
2023-04-27T19:54:53.785Z,97.45
2023-04-27T19:57:22.264Z,97.13
2023-04-27T19:59:50.622Z,97.01
2023-04-27T20:02:19.038Z,96.64
2023-04-27T20:04:48.993Z,97.93
2023-04-27T20:07:17.701Z,97.41
2023-04-27T20:09:46.124Z,95.60
2023-04-27T20:12:34.804Z,95.18
2023-04-27T20:15:02.707Z,94.15
2023-04-27T20:17:31.453Z,95.09
2023-04-27T20:20:01.459Z,95.50
2023-04-27T20:22:29.747Z,95.70
2023-04-27T20:25:00.322Z,96.19
2023-04-27T20:27:28.565Z,96.73
2023-04-27T20:29:57.023Z,96.77
2023-04-27T20:32:25.305Z,97.29
2023-04-27T20:34:53.552Z,94.43
2023-04-27T20:37:23.358Z,91.35
2023-04-27T20:39:51.997Z,91.17
2023-04-27T20:42:20.883Z,89.56
2023-04-27T20:44:51.308Z,86.34
2023-04-27T20:47:19.670Z,86.80
2023-04-27T20:49:48.087Z,84.63
2023-04-27T20:52:16.503Z,83.53
2023-04-27T20:54:46.192Z,82.42
2023-04-27T20:57:14.618Z,81.53
2023-04-27T20:59:43.006Z,79.91
2023-04-27T21:02:11.245Z,78.10
2023-04-27T21:04:39.846Z,77.38
2023-04-27T21:07:08.260Z,76.27
2023-04-27T21:09:38.595Z,75.59
2023-04-27T21:12:08.821Z,74.41
2023-04-27T21:14:37.611Z,73.65
2023-04-27T21:17:06.202Z,73.49
2023-04-27T21:19:34.540Z,73.80
2023-04-27T21:22:02.880Z,72.86
2023-04-27T21:24:31.107Z,72.14
2023-04-27T21:26:59.588Z,71.88
2023-04-27T21:29:29.223Z,71.34
2023-04-27T21:31:57.581Z,70.83
2023-04-27T21:34:25.811Z,71.14
2023-04-27T21:36:54.161Z,70.67
2023-04-27T21:39:22.417Z,69.44
2023-04-27T21:41:50.768Z,68.49
2023-04-27T21:44:19.400Z,68.11
2023-04-27T21:46:49.266Z,67.04
2023-04-27T21:49:18.205Z,66.78
2023-04-27T21:51:46.693Z,66.78
2023-04-27T21:54:15.253Z,66.30
2023-04-27T21:56:43.929Z,66.52
2023-04-27T21:59:12.349Z,67.10
2023-04-27T22:01:41.475Z,67.32
2023-04-27T22:04:11.504Z,68.02
2023-04-27T22:06:40.938Z,68.68
2023-04-27T22:09:09.571Z,69.74
2023-04-27T22:11:37.950Z,69.88
2023-04-27T22:14:06.528Z,70.82
2023-04-27T22:16:35.102Z,70.72
2023-04-27T22:19:03.937Z,71.16
2023-04-27T22:21:34.544Z,71.71
2023-04-27T22:24:03.035Z,71.45
2023-04-27T22:26:31.450Z,71.27
2023-04-27T22:28:59.903Z,70.39
2023-04-27T22:31:28.437Z,71.43
2023-04-27T22:33:57.067Z,70.27
2023-04-27T22:36:25.641Z,71.08
2023-04-27T22:38:55.694Z,72.08
2023-04-27T22:41:24.360Z,71.28
2023-04-27T22:43:52.666Z,70.74
2023-04-27T22:46:23.104Z,71.23
2023-04-27T22:48:52.893Z,70.87
2023-04-27T22:51:21.838Z,70.42
2023-04-27T22:53:50.228Z,70.28
2023-04-27T22:56:19.900Z,70.10
2023-04-27T22:58:48.327Z,69.91
2023-04-27T23:01:16.680Z,70.21
2023-04-27T23:03:45.112Z,69.76
2023-04-27T23:06:16.745Z,69.38
2023-04-27T23:08:47.191Z,68.79
2023-04-27T23:11:19.053Z,68.36
2023-04-27T23:13:50.685Z,67.05
2023-04-27T23:16:19.004Z,66.60
2023-04-27T23:18:47.402Z,66.49
2023-04-27T23:21:15.682Z,67.31
2023-04-27T23:23:44.176Z,67.13
2023-04-27T23:26:16.428Z,66.72
2023-04-27T23:28:45.021Z,66.49
2023-04-27T23:31:14.922Z,66.55
2023-04-27T23:33:43.255Z,65.51
2023-04-27T23:36:11.500Z,65.23
2023-04-27T23:38:39.918Z,65.32
2023-04-27T23:41:08.137Z,65.33
2023-04-27T23:43:36.387Z,65.34
2023-04-27T23:46:05.849Z,65.27
2023-04-27T23:48:36.627Z,65.74
2023-04-27T23:51:06.106Z,65.98
2023-04-27T23:53:34.472Z,66.17
2023-04-27T23:56:02.755Z,66.04
2023-04-27T23:58:31.078Z,66.18
